sensor_id;sensor_type;location;lat;lon;timestamp;pressure;altitude;pressure_sealevel;temperature;humidity
22651;BME280;11492;42.646;23.400;2022-07-29T00:02:25;95206.38;;;19.69;76.82
22651;BME280;11492;42.646;23.400;2022-07-29T00:04:50;95206.47;;;19.62;76.88
22651;BME280;11492;42.646;23.400;2022-07-29T00:07:15;95210.22;;;19.66;76.99
22651;BME280;11492;42.646;23.400;2022-07-29T00:09:41;95210.47;;;19.76;76.97
22651;BME280;11492;42.646;23.400;2022-07-29T00:12:06;95215.38;;;19.84;76.57
22651;BME280;11492;42.646;23.400;2022-07-29T00:14:31;95228.03;;;19.75;77.09
22651;BME280;11492;42.646;23.400;2022-07-29T00:16:57;95223.78;;;19.63;77.22
22651;BME280;11492;42.646;23.400;2022-07-29T00:19:22;95227.66;;;19.49;78.12
22651;BME280;11492;42.646;23.400;2022-07-29T00:21:47;95236.31;;;19.50;78.35
22651;BME280;11492;42.646;23.400;2022-07-29T00:24:13;95237.44;;;19.54;77.82
22651;BME280;11492;42.646;23.400;2022-07-29T00:26:38;95242.56;;;19.60;77.43
22651;BME280;11492;42.646;23.400;2022-07-29T00:29:03;95230.06;;;19.62;77.30
22651;BME280;11492;42.646;23.400;2022-07-29T00:31:29;95229.94;;;19.57;77.17
22651;BME280;11492;42.646;23.400;2022-07-29T00:33:54;95228.78;;;19.53;77.28
22651;BME280;11492;42.646;23.400;2022-07-29T00:36:20;95213.63;;;19.55;77.42
22651;BME280;11492;42.646;23.400;2022-07-29T00:38:51;95209.09;;;19.62;77.39
22651;BME280;11492;42.646;23.400;2022-07-29T00:41:17;95206.38;;;19.69;77.49
22651;BME280;11492;42.646;23.400;2022-07-29T00:43:42;95215.69;;;19.65;77.27
22651;BME280;11492;42.646;23.400;2022-07-29T00:46:08;95219.78;;;19.61;77.22
22651;BME280;11492;42.646;23.400;2022-07-29T00:48:33;95218.91;;;19.67;77.07
22651;BME280;11492;42.646;23.400;2022-07-29T00:50:59;95225.16;;;19.66;77.44
22651;BME280;11492;42.646;23.400;2022-07-29T00:53:26;95231.19;;;19.55;77.52
22651;BME280;11492;42.646;23.400;2022-07-29T00:55:53;95227.44;;;19.62;77.50
22651;BME280;11492;42.646;23.400;2022-07-29T00:58:18;95228.56;;;19.66;77.21
22651;BME280;11492;42.646;23.400;2022-07-29T01:00:44;95232.00;;;19.67;77.42
22651;BME280;11492;42.646;23.400;2022-07-29T01:03:09;95226.06;;;19.60;77.63
22651;BME280;11492;42.646;23.400;2022-07-29T01:05:35;95233.81;;;19.44;77.99
22651;BME280;11492;42.646;23.400;2022-07-29T01:08:00;95219.59;;;19.51;78.10
22651;BME280;11492;42.646;23.400;2022-07-29T01:10:26;95226.28;;;19.47;77.87
22651;BME280;11492;42.646;23.400;2022-07-29T01:12:53;95212.16;;;19.37;78.32
22651;BME280;11492;42.646;23.400;2022-07-29T01:15:19;95211.91;;;19.27;78.43
22651;BME280;11492;42.646;23.400;2022-07-29T01:25:45;95214.63;;;18.80;80.66
22651;BME280;11492;42.646;23.400;2022-07-29T01:31:15;95217.03;;;18.53;82.15
22651;BME280;11492;42.646;23.400;2022-07-29T01:33:42;95221.19;;;18.72;80.99
22651;BME280;11492;42.646;23.400;2022-07-29T01:36:31;95215.63;;;18.68;81.44
22651;BME280;11492;42.646;23.400;2022-07-29T01:39:19;95213.94;;;18.73;81.12
22651;BME280;11492;42.646;23.400;2022-07-29T01:42:29;95211.53;;;18.83;80.98
22651;BME280;11492;42.646;23.400;2022-07-29T01:44:33;95203.28;;;18.86;80.50
22651;BME280;11492;42.646;23.400;2022-07-29T01:47:02;95200.44;;;18.88;80.36
22651;BME280;11492;42.646;23.400;2022-07-29T01:49:31;95196.59;;;18.90;80.34
22651;BME280;11492;42.646;23.400;2022-07-29T01:52:02;95195.94;;;18.95;80.11
22651;BME280;11492;42.646;23.400;2022-07-29T01:54:30;95191.69;;;18.94;80.18
22651;BME280;11492;42.646;23.400;2022-07-29T01:56:59;95196.63;;;19.01;80.05
22651;BME280;11492;42.646;23.400;2022-07-29T01:59:25;95195.34;;;19.04;79.21
22651;BME280;11492;42.646;23.400;2022-07-29T02:01:52;95192.63;;;18.99;79.63
22651;BME280;11492;42.646;23.400;2022-07-29T02:04:18;95191.38;;;19.01;79.83
22651;BME280;11492;42.646;23.400;2022-07-29T02:06:45;95190.03;;;19.10;79.49
22651;BME280;11492;42.646;23.400;2022-07-29T02:09:12;95184.81;;;19.10;79.24
22651;BME280;11492;42.646;23.400;2022-07-29T02:11:38;95181.16;;;19.11;79.49
22651;BME280;11492;42.646;23.400;2022-07-29T02:14:04;95189.69;;;19.18;79.46
22651;BME280;11492;42.646;23.400;2022-07-29T02:16:30;95185.50;;;19.17;79.21
22651;BME280;11492;42.646;23.400;2022-07-29T02:18:57;95176.28;;;19.15;79.11
22651;BME280;11492;42.646;23.400;2022-07-29T02:21:25;95177.94;;;19.09;79.42
22651;BME280;11492;42.646;23.400;2022-07-29T02:23:51;95181.72;;;19.13;79.30
22651;BME280;11492;42.646;23.400;2022-07-29T02:26:19;95182.88;;;19.17;79.21
22651;BME280;11492;42.646;23.400;2022-07-29T02:28:45;95185.50;;;19.17;79.08
22651;BME280;11492;42.646;23.400;2022-07-29T02:31:11;95183.00;;;19.22;78.86
22651;BME280;11492;42.646;23.400;2022-07-29T02:33:37;95178.53;;;19.23;78.43
22651;BME280;11492;42.646;23.400;2022-07-29T02:36:04;95185.94;;;19.14;78.41
22651;BME280;11492;42.646;23.400;2022-07-29T02:38:29;95190.72;;;19.17;78.48
22651;BME280;11492;42.646;23.400;2022-07-29T02:41:29;95175.59;;;19.30;77.74
22651;BME280;11492;42.646;23.400;2022-07-29T02:43:56;95177.31;;;19.36;77.61
22651;BME280;11492;42.646;23.400;2022-07-29T02:46:29;95169.91;;;19.45;77.62
22651;BME280;11492;42.646;23.400;2022-07-29T02:51:43;95157.72;;;19.61;77.36
22651;BME280;11492;42.646;23.400;2022-07-29T02:54:10;95155.00;;;19.68;76.71
22651;BME280;11492;42.646;23.400;2022-07-29T02:56:36;95163.28;;;19.76;76.66
22651;BME280;11492;42.646;23.400;2022-07-29T02:59:05;95160.88;;;19.86;76.20
22651;BME280;11492;42.646;23.400;2022-07-29T03:01:32;95165.78;;;19.94;76.12
22651;BME280;11492;42.646;23.400;2022-07-29T03:04:00;95167.94;;;19.97;75.86
22651;BME280;11492;42.646;23.400;2022-07-29T03:06:25;95175.34;;;19.99;76.33
22651;BME280;11492;42.646;23.400;2022-07-29T03:08:52;95171.13;;;19.98;76.70
22651;BME280;11492;42.646;23.400;2022-07-29T03:11:18;95163.28;;;19.98;76.52
22651;BME280;11492;42.646;23.400;2022-07-29T03:13:44;95164.31;;;19.98;77.17
22651;BME280;11492;42.646;23.400;2022-07-29T03:16:10;95160.53;;;19.94;77.50
22651;BME280;11492;42.646;23.400;2022-07-29T03:18:36;95157.56;;;19.90;77.62
22651;BME280;11492;42.646;23.400;2022-07-29T03:21:02;95167.72;;;19.87;77.55
22651;BME280;11492;42.646;23.400;2022-07-29T03:23:28;95171.84;;;19.83;78.00
22651;BME280;11492;42.646;23.400;2022-07-29T03:25:53;95175.94;;;19.79;78.37
22651;BME280;11492;42.646;23.400;2022-07-29T03:28:19;95174.00;;;19.74;78.86
22651;BME280;11492;42.646;23.400;2022-07-29T03:30:44;95166.03;;;19.70;79.13
22651;BME280;11492;42.646;23.400;2022-07-29T03:33:10;95173.53;;;19.66;79.77
22651;BME280;11492;42.646;23.400;2022-07-29T03:35:35;95172.97;;;19.64;80.00
22651;BME280;11492;42.646;23.400;2022-07-29T03:38:00;95160.91;;;19.63;80.15
22651;BME280;11492;42.646;23.400;2022-07-29T03:40:27;95170.22;;;19.59;80.14
22651;BME280;11492;42.646;23.400;2022-07-29T03:42:55;95174.13;;;19.57;80.17
22651;BME280;11492;42.646;23.400;2022-07-29T03:45:21;95179.38;;;19.57;80.04
22651;BME280;11492;42.646;23.400;2022-07-29T03:47:52;95172.75;;;19.54;80.12
22651;BME280;11492;42.646;23.400;2022-07-29T03:50:18;95183.59;;;19.47;80.36
22651;BME280;11492;42.646;23.400;2022-07-29T03:52:45;95186.88;;;19.42;80.46
22651;BME280;11492;42.646;23.400;2022-07-29T03:55:10;95187.56;;;19.38;80.22
22651;BME280;11492;42.646;23.400;2022-07-29T03:57:36;95183.56;;;19.35;80.32
22651;BME280;11492;42.646;23.400;2022-07-29T04:00:03;95185.97;;;19.37;80.54
22651;BME280;11492;42.646;23.400;2022-07-29T04:02:29;95187.66;;;19.31;80.95
22651;BME280;11492;42.646;23.400;2022-07-29T04:04:55;95191.66;;;19.34;81.00
22651;BME280;11492;42.646;23.400;2022-07-29T04:07:20;95191.31;;;19.30;81.06
22651;BME280;11492;42.646;23.400;2022-07-29T04:09:46;95185.06;;;19.31;80.31
22651;BME280;11492;42.646;23.400;2022-07-29T04:12:11;95187.66;;;19.31;80.92
22651;BME280;11492;42.646;23.400;2022-07-29T04:14:36;95188.47;;;19.32;80.86
22651;BME280;11492;42.646;23.400;2022-07-29T04:17:02;95186.75;;;19.37;81.91
22651;BME280;11492;42.646;23.400;2022-07-29T04:19:28;95197.13;;;19.32;81.74
22651;BME280;11492;42.646;23.400;2022-07-29T04:21:53;95182.75;;;19.35;81.93
22651;BME280;11492;42.646;23.400;2022-07-29T04:24:18;95178.66;;;19.39;82.33
22651;BME280;11492;42.646;23.400;2022-07-29T04:26:45;95181.28;;;19.39;82.46
22651;BME280;11492;42.646;23.400;2022-07-29T04:29:10;95182.44;;;19.43;81.76
22651;BME280;11492;42.646;23.400;2022-07-29T04:31:37;95176.97;;;19.44;81.18
22651;BME280;11492;42.646;23.400;2022-07-29T04:34:02;95180.03;;;19.52;81.62
22651;BME280;11492;42.646;23.400;2022-07-29T04:36:28;95185.41;;;19.57;81.83
22651;BME280;11492;42.646;23.400;2022-07-29T04:38:53;95187.91;;;19.64;82.11
22651;BME280;11492;42.646;23.400;2022-07-29T04:41:18;95192.50;;;19.68;79.53
22651;BME280;11492;42.646;23.400;2022-07-29T04:43:44;95191.13;;;19.77;79.18
22651;BME280;11492;42.646;23.400;2022-07-29T04:46:09;95196.25;;;19.83;78.27
22651;BME280;11492;42.646;23.400;2022-07-29T04:48:34;95197.16;;;19.89;76.91
22651;BME280;11492;42.646;23.400;2022-07-29T04:50:59;95199.28;;;19.92;76.41
22651;BME280;11492;42.646;23.400;2022-07-29T04:53:25;95203.41;;;19.99;75.92
22651;BME280;11492;42.646;23.400;2022-07-29T04:55:50;95201.78;;;20.09;75.89
22651;BME280;11492;42.646;23.400;2022-07-29T04:58:15;95199.69;;;20.23;74.84
22651;BME280;11492;42.646;23.400;2022-07-29T05:00:41;95203.53;;;20.31;74.33
22651;BME280;11492;42.646;23.400;2022-07-29T05:03:06;95210.25;;;20.39;73.97
22651;BME280;11492;42.646;23.400;2022-07-29T05:05:31;95206.13;;;20.43;73.88
22651;BME280;11492;42.646;23.400;2022-07-29T05:07:57;95205.56;;;20.52;73.86
22651;BME280;11492;42.646;23.400;2022-07-29T05:10:22;95209.41;;;20.61;74.72
22651;BME280;11492;42.646;23.400;2022-07-29T05:12:48;95207.09;;;20.64;73.65
22651;BME280;11492;42.646;23.400;2022-07-29T05:15:13;95206.75;;;20.72;73.59
22651;BME280;11492;42.646;23.400;2022-07-29T05:17:38;95211.13;;;20.83;72.67
22651;BME280;11492;42.646;23.400;2022-07-29T05:20:04;95211.78;;;20.90;71.95
22651;BME280;11492;42.646;23.400;2022-07-29T05:22:30;95218.72;;;20.96;72.14
22651;BME280;11492;42.646;23.400;2022-07-29T05:24:55;95216.34;;;21.10;70.27
22651;BME280;11492;42.646;23.400;2022-07-29T05:27:20;95211.75;;;21.17;70.51
22651;BME280;11492;42.646;23.400;2022-07-29T05:29:45;95206.09;;;21.25;70.17
22651;BME280;11492;42.646;23.400;2022-07-29T05:32:11;95210.50;;;21.36;69.79
22651;BME280;11492;42.646;23.400;2022-07-29T05:34:36;95211.47;;;21.46;69.82
22651;BME280;11492;42.646;23.400;2022-07-29T05:37:02;95212.34;;;21.51;69.96
22651;BME280;11492;42.646;23.400;2022-07-29T05:39:27;95218.19;;;21.53;70.40
22651;BME280;11492;42.646;23.400;2022-07-29T05:41:52;95218.25;;;21.58;69.74
22651;BME280;11492;42.646;23.400;2022-07-29T05:44:18;95214.16;;;21.67;68.83
22651;BME280;11492;42.646;23.400;2022-07-29T05:46:43;95210.56;;;21.73;69.06
22651;BME280;11492;42.646;23.400;2022-07-29T05:49:08;95210.63;;;21.78;70.24
22651;BME280;11492;42.646;23.400;2022-07-29T05:51:34;95222.91;;;21.89;68.90
22651;BME280;11492;42.646;23.400;2022-07-29T05:53:59;95215.41;;;21.97;68.38
22651;BME280;11492;42.646;23.400;2022-07-29T05:56:25;95213.66;;;22.02;68.46
22651;BME280;11492;42.646;23.400;2022-07-29T05:58:51;95215.09;;;22.10;68.62
22651;BME280;11492;42.646;23.400;2022-07-29T06:01:16;95221.28;;;22.20;68.49
22651;BME280;11492;42.646;23.400;2022-07-29T06:03:41;95216.63;;;22.27;68.32
22651;BME280;11492;42.646;23.400;2022-07-29T06:06:07;95211.44;;;22.32;68.55
22651;BME280;11492;42.646;23.400;2022-07-29T06:08:32;95210.38;;;22.33;68.04
22651;BME280;11492;42.646;23.400;2022-07-29T06:10:59;95217.84;;;22.41;68.19
22651;BME280;11492;42.646;23.400;2022-07-29T06:13:24;95217.50;;;22.53;67.54
22651;BME280;11492;42.646;23.400;2022-07-29T06:15:49;95232.69;;;22.68;67.06
22651;BME280;11492;42.646;23.400;2022-07-29T06:18:14;95226.75;;;22.77;67.27
22651;BME280;11492;42.646;23.400;2022-07-29T06:20:40;95224.47;;;22.85;67.15
22651;BME280;11492;42.646;23.400;2022-07-29T06:23:05;95227.19;;;22.95;67.08
22651;BME280;11492;42.646;23.400;2022-07-29T06:25:31;95224.63;;;23.00;67.13
22651;BME280;11492;42.646;23.400;2022-07-29T06:27:59;95218.88;;;23.08;67.63
22651;BME280;11492;42.646;23.400;2022-07-29T06:30:24;95225.31;;;23.17;67.09
22651;BME280;11492;42.646;23.400;2022-07-29T06:32:50;95223.03;;;23.25;66.69
22651;BME280;11492;42.646;23.400;2022-07-29T06:35:15;95223.59;;;23.32;65.32
22651;BME280;11492;42.646;23.400;2022-07-29T06:37:40;95217.59;;;23.36;64.75
22651;BME280;11492;42.646;23.400;2022-07-29T06:40:06;95217.88;;;23.40;64.79
22651;BME280;11492;42.646;23.400;2022-07-29T06:42:49;95215.09;;;23.51;64.31
22651;BME280;11492;42.646;23.400;2022-07-29T06:45:15;95207.78;;;23.58;64.29
22651;BME280;11492;42.646;23.400;2022-07-29T06:47:41;95214.44;;;23.65;63.69
22651;BME280;11492;42.646;23.400;2022-07-29T06:50:06;95214.25;;;23.76;63.04
22651;BME280;11492;42.646;23.400;2022-07-29T06:52:32;95215.91;;;23.87;63.18
22651;BME280;11492;42.646;23.400;2022-07-29T06:54:57;95207.78;;;23.99;62.86
22651;BME280;11492;42.646;23.400;2022-07-29T06:57:22;95211.34;;;24.14;62.25
22651;BME280;11492;42.646;23.400;2022-07-29T06:59:48;95211.66;;;24.22;61.79
22651;BME280;11492;42.646;23.400;2022-07-29T07:02:13;95213.31;;;24.33;61.77
22651;BME280;11492;42.646;23.400;2022-07-29T07:04:39;95209.66;;;24.44;60.54
22651;BME280;11492;42.646;23.400;2022-07-29T07:07:04;95214.44;;;24.56;59.87
22651;BME280;11492;42.646;23.400;2022-07-29T07:09:29;95204.19;;;24.65;60.33
22651;BME280;11492;42.646;23.400;2022-07-29T07:11:54;95200.78;;;24.74;59.20
22651;BME280;11492;42.646;23.400;2022-07-29T07:14:20;95206.09;;;24.84;58.85
22651;BME280;11492;42.646;23.400;2022-07-29T07:16:45;95207.19;;;24.93;58.54
22651;BME280;11492;42.646;23.400;2022-07-29T07:19:10;95204.06;;;25.05;57.93
22651;BME280;11492;42.646;23.400;2022-07-29T07:21:36;95209.88;;;25.12;57.30
22651;BME280;11492;42.646;23.400;2022-07-29T07:24:01;95207.25;;;25.22;56.35
22651;BME280;11492;42.646;23.400;2022-07-29T07:26:26;95208.06;;;25.32;56.02
22651;BME280;11492;42.646;23.400;2022-07-29T07:28:52;95203.56;;;25.38;55.71
22651;BME280;11492;42.646;23.400;2022-07-29T07:31:17;95205.16;;;25.34;55.63
22651;BME280;11492;42.646;23.400;2022-07-29T07:33:43;95203.56;;;25.38;54.98
22651;BME280;11492;42.646;23.400;2022-07-29T07:36:08;95202.03;;;25.42;54.74
22651;BME280;11492;42.646;23.400;2022-07-29T07:38:33;95199.91;;;25.53;55.14
22651;BME280;11492;42.646;23.400;2022-07-29T07:40:59;95197.25;;;25.63;54.72
22651;BME280;11492;42.646;23.400;2022-07-29T07:43:24;95183.22;;;25.77;54.04
22651;BME280;11492;42.646;23.400;2022-07-29T07:45:49;95196.97;;;25.94;53.22
22651;BME280;11492;42.646;23.400;2022-07-29T07:48:14;95193.53;;;26.03;52.53
22651;BME280;11492;42.646;23.400;2022-07-29T07:50:40;95187.66;;;26.16;53.21
22651;BME280;11492;42.646;23.400;2022-07-29T07:53:05;95195.88;;;26.25;51.53
22651;BME280;11492;42.646;23.400;2022-07-29T07:55:30;95190.00;;;26.37;51.35
22651;BME280;11492;42.646;23.400;2022-07-29T07:57:56;95189.66;;;26.53;51.03
22651;BME280;11492;42.646;23.400;2022-07-29T08:00:21;95202.34;;;26.76;50.34
22651;BME280;11492;42.646;23.400;2022-07-29T08:02:46;95193.75;;;26.89;50.15
22651;BME280;11492;42.646;23.400;2022-07-29T08:05:12;95194.56;;;26.89;49.97
22651;BME280;11492;42.646;23.400;2022-07-29T08:07:41;95191.31;;;27.02;49.04
22651;BME280;11492;42.646;23.400;2022-07-29T08:10:07;95195.69;;;27.21;49.41
22651;BME280;11492;42.646;23.400;2022-07-29T08:12:32;95191.75;;;27.56;47.50
22651;BME280;11492;42.646;23.400;2022-07-29T08:14:57;95193.09;;;27.87;46.96
22651;BME280;11492;42.646;23.400;2022-07-29T08:17:23;95195.28;;;28.08;46.76
22651;BME280;11492;42.646;23.400;2022-07-29T08:19:48;95192.81;;;28.39;45.47
22651;BME280;11492;42.646;23.400;2022-07-29T08:22:14;95188.47;;;28.71;45.54
22651;BME280;11492;42.646;23.400;2022-07-29T08:24:40;95175.38;;;28.98;44.83
22651;BME280;11492;42.646;23.400;2022-07-29T08:27:09;95177.69;;;29.22;41.16
22651;BME280;11492;42.646;23.400;2022-07-29T08:29:34;95182.00;;;29.55;41.03
22651;BME280;11492;42.646;23.400;2022-07-29T08:31:59;95170.44;;;29.77;40.35
22651;BME280;11492;42.646;23.400;2022-07-29T08:34:25;95168.91;;;29.89;40.01
22651;BME280;11492;42.646;23.400;2022-07-29T08:36:50;95180.25;;;30.13;40.11
22651;BME280;11492;42.646;23.400;2022-07-29T08:39:16;95173.94;;;30.35;39.01
22651;BME280;11492;42.646;23.400;2022-07-29T08:41:41;95171.19;;;30.54;39.03
22651;BME280;11492;42.646;23.400;2022-07-29T08:44:07;95172.97;;;30.71;37.70
22651;BME280;11492;42.646;23.400;2022-07-29T08:46:32;95175.81;;;30.88;37.01
22651;BME280;11492;42.646;23.400;2022-07-29T08:48:58;95175.00;;;31.01;37.48
22651;BME280;11492;42.646;23.400;2022-07-29T08:51:23;95179.88;;;31.12;37.36
22651;BME280;11492;42.646;23.400;2022-07-29T08:53:50;95173.75;;;31.33;36.48
22651;BME280;11492;42.646;23.400;2022-07-29T08:56:16;95167.97;;;31.53;36.75
22651;BME280;11492;42.646;23.400;2022-07-29T08:58:42;95161.06;;;31.73;35.86
22651;BME280;11492;42.646;23.400;2022-07-29T09:01:08;95159.94;;;31.96;35.45
22651;BME280;11492;42.646;23.400;2022-07-29T09:03:34;95162.44;;;32.14;34.73
22651;BME280;11492;42.646;23.400;2022-07-29T09:06:01;95162.16;;;32.24;35.21
22651;BME280;11492;42.646;23.400;2022-07-29T09:08:27;95164.88;;;32.32;34.86
22651;BME280;11492;42.646;23.400;2022-07-29T09:10:53;95162.13;;;32.54;35.56
22651;BME280;11492;42.646;23.400;2022-07-29T09:13:18;95163.66;;;32.85;35.53
22651;BME280;11492;42.646;23.400;2022-07-29T09:15:44;95151.47;;;33.17;34.02
22651;BME280;11492;42.646;23.400;2022-07-29T09:18:09;95149.75;;;33.46;33.59
22651;BME280;11492;42.646;23.400;2022-07-29T09:20:35;95154.66;;;33.44;33.22
22651;BME280;11492;42.646;23.400;2022-07-29T09:23:19;95162.16;;;33.09;33.79
22651;BME280;11492;42.646;23.400;2022-07-29T09:25:44;95157.84;;;32.91;33.66
22651;BME280;11492;42.646;23.400;2022-07-29T09:28:10;95162.41;;;32.82;34.95
22651;BME280;11492;42.646;23.400;2022-07-29T09:30:52;95154.94;;;32.62;34.97
22651;BME280;11492;42.646;23.400;2022-07-29T09:33:18;95159.25;;;32.42;34.88
22651;BME280;11492;42.646;23.400;2022-07-29T09:35:43;95158.94;;;32.35;34.92
22651;BME280;11492;42.646;23.400;2022-07-29T09:38:12;95153.47;;;32.18;35.60
22651;BME280;11492;42.646;23.400;2022-07-29T09:40:38;95147.19;;;32.14;35.63
22651;BME280;11492;42.646;23.400;2022-07-29T09:43:10;95145.56;;;32.35;35.30
22651;BME280;11492;42.646;23.400;2022-07-29T09:45:35;95146.59;;;32.64;35.81
22651;BME280;11492;42.646;23.400;2022-07-29T09:48:15;95145.06;;;32.71;35.16
22651;BME280;11492;42.646;23.400;2022-07-29T09:50:42;95142.88;;;32.90;35.07
22651;BME280;11492;42.646;23.400;2022-07-29T09:53:08;95138.03;;;33.09;35.44
22651;BME280;11492;42.646;23.400;2022-07-29T09:55:50;95132.88;;;33.20;33.64
22651;BME280;11492;42.646;23.400;2022-07-29T09:58:19;95126.72;;;33.45;33.80
22651;BME280;11492;42.646;23.400;2022-07-29T10:00:45;95121.22;;;33.66;33.47
22651;BME280;11492;42.646;23.400;2022-07-29T10:03:12;95112.84;;;33.76;32.94
22651;BME280;11492;42.646;23.400;2022-07-29T10:05:37;95118.63;;;33.95;32.71
22651;BME280;11492;42.646;23.400;2022-07-29T10:08:03;95110.41;;;34.08;32.98
22651;BME280;11492;42.646;23.400;2022-07-29T10:15:19;95110.53;;;34.57;32.58
22651;BME280;11492;42.646;23.400;2022-07-29T10:17:45;95106.88;;;34.61;32.63
22651;BME280;11492;42.646;23.400;2022-07-29T10:20:11;95103.72;;;34.67;31.16
22651;BME280;11492;42.646;23.400;2022-07-29T10:22:37;95096.53;;;34.80;31.14
22651;BME280;11492;42.646;23.400;2022-07-29T10:25:03;95099.94;;;34.88;30.89
22651;BME280;11492;42.646;23.400;2022-07-29T10:27:28;95094.16;;;34.98;30.95
22651;BME280;11492;42.646;23.400;2022-07-29T10:29:54;95095.06;;;34.82;30.26
22651;BME280;11492;42.646;23.400;2022-07-29T10:40:17;95081.53;;;34.99;30.60
22651;BME280;11492;42.646;23.400;2022-07-29T10:45:54;95085.25;;;35.14;31.09
22651;BME280;11492;42.646;23.400;2022-07-29T10:48:20;95079.91;;;35.26;31.02
22651;BME280;11492;42.646;23.400;2022-07-29T10:50:52;95074.00;;;35.53;29.46
22651;BME280;11492;42.646;23.400;2022-07-29T10:53:19;95073.63;;;35.74;29.76
22651;BME280;11492;42.646;23.400;2022-07-29T10:55:45;95073.38;;;35.99;29.09
22651;BME280;11492;42.646;23.400;2022-07-29T10:58:17;95071.53;;;35.91;29.30
22651;BME280;11492;42.646;23.400;2022-07-29T11:00:43;95066.31;;;35.95;28.61
22651;BME280;11492;42.646;23.400;2022-07-29T11:03:09;95061.91;;;35.59;29.22
22651;BME280;11492;42.646;23.400;2022-07-29T11:05:54;95062.63;;;35.67;29.40
22651;BME280;11492;42.646;23.400;2022-07-29T11:08:20;95062.16;;;35.65;29.30
22651;BME280;11492;42.646;23.400;2022-07-29T11:10:48;95062.28;;;35.69;29.40
22651;BME280;11492;42.646;23.400;2022-07-29T11:13:44;95065.47;;;35.83;29.21
22651;BME280;11492;42.646;23.400;2022-07-29T11:15:59;95062.00;;;35.82;29.75
22651;BME280;11492;42.646;23.400;2022-07-29T11:18:24;95052.09;;;35.63;29.43
22651;BME280;11492;42.646;23.400;2022-07-29T11:20:50;95052.09;;;35.63;29.63
22651;BME280;11492;42.646;23.400;2022-07-29T11:28:33;95043.22;;;35.94;29.76
22651;BME280;11492;42.646;23.400;2022-07-29T11:31:00;95046.88;;;35.89;29.14
22651;BME280;11492;42.646;23.400;2022-07-29T11:33:35;95048.13;;;35.92;28.22
22651;BME280;11492;42.646;23.400;2022-07-29T11:36:13;95033.28;;;35.86;28.42
22651;BME280;11492;42.646;23.400;2022-07-29T11:38:40;95030.19;;;35.96;27.91
22651;BME280;11492;42.646;23.400;2022-07-29T11:41:24;95037.19;;;35.97;28.21
22651;BME280;11492;42.646;23.400;2022-07-29T11:43:54;95032.00;;;36.04;29.12
22651;BME280;11492;42.646;23.400;2022-07-29T11:49:03;95031.72;;;36.41;28.56
22651;BME280;11492;42.646;23.400;2022-07-29T11:51:29;95031.81;;;36.56;28.24
22651;BME280;11492;42.646;23.400;2022-07-29T11:53:55;95029.22;;;36.36;27.13
22651;BME280;11492;42.646;23.400;2022-07-29T11:56:22;95014.97;;;36.35;27.72
22651;BME280;11492;42.646;23.400;2022-07-29T11:58:48;95024.63;;;36.48;27.68
22651;BME280;11492;42.646;23.400;2022-07-29T12:01:13;95023.03;;;36.35;27.55
22651;BME280;11492;42.646;23.400;2022-07-29T12:03:41;95014.19;;;36.35;27.42
22651;BME280;11492;42.646;23.400;2022-07-29T12:06:13;95013.84;;;36.48;27.63
22651;BME280;11492;42.646;23.400;2022-07-29T12:08:39;95026.41;;;36.32;27.86
22651;BME280;11492;42.646;23.400;2022-07-29T12:11:14;95019.25;;;36.24;27.38
22651;BME280;11492;42.646;23.400;2022-07-29T12:13:39;95026.63;;;36.15;26.64
22651;BME280;11492;42.646;23.400;2022-07-29T12:16:04;95024.94;;;35.99;27.51
22651;BME280;11492;42.646;23.400;2022-07-29T12:18:30;95030.50;;;35.83;27.39
22651;BME280;11492;42.646;23.400;2022-07-29T12:20:56;95025.31;;;35.66;27.23
22651;BME280;11492;42.646;23.400;2022-07-29T12:23:22;95025.81;;;35.28;28.50
22651;BME280;11492;42.646;23.400;2022-07-29T12:25:49;95024.25;;;34.87;28.34
22651;BME280;11492;42.646;23.400;2022-07-29T12:28:14;95016.25;;;34.58;28.98
22651;BME280;11492;42.646;23.400;2022-07-29T12:30:47;95015.81;;;34.19;29.60
22651;BME280;11492;42.646;23.400;2022-07-29T12:35:42;95015.09;;;34.02;30.42
22651;BME280;11492;42.646;23.400;2022-07-29T12:38:10;95009.63;;;34.27;30.05
22651;BME280;11492;42.646;23.400;2022-07-29T12:40:35;95006.38;;;34.42;29.89
22651;BME280;11492;42.646;23.400;2022-07-29T12:43:08;95009.31;;;34.49;30.12
22651;BME280;11492;42.646;23.400;2022-07-29T12:45:34;95002.06;;;34.49;30.02
22651;BME280;11492;42.646;23.400;2022-07-29T12:47:59;94998.56;;;34.57;30.49
22651;BME280;11492;42.646;23.400;2022-07-29T12:50:24;94996.09;;;34.44;30.04
22651;BME280;11492;42.646;23.400;2022-07-29T12:52:50;94987.56;;;34.22;30.40
22651;BME280;11492;42.646;23.400;2022-07-29T12:55:37;95000.69;;;34.15;30.59
22651;BME280;11492;42.646;23.400;2022-07-29T12:58:01;94987.78;;;34.09;30.95
22651;BME280;11492;42.646;23.400;2022-07-29T13:00:26;94992.19;;;34.13;30.61
22651;BME280;11492;42.646;23.400;2022-07-29T13:02:56;94983.34;;;34.04;31.83
22651;BME280;11492;42.646;23.400;2022-07-29T13:05:21;94979.59;;;33.97;31.25
22651;BME280;11492;42.646;23.400;2022-07-29T13:07:46;94979.56;;;33.68;31.12
22651;BME280;11492;42.646;23.400;2022-07-29T13:15:24;94982.84;;;33.20;32.01
22651;BME280;11492;42.646;23.400;2022-07-29T13:17:50;94976.53;;;33.08;31.75
22651;BME280;11492;42.646;23.400;2022-07-29T13:20:15;94972.00;;;32.92;31.67
22651;BME280;11492;42.646;23.400;2022-07-29T13:22:41;94970.25;;;32.79;32.54
22651;BME280;11492;42.646;23.400;2022-07-29T13:25:07;94969.31;;;32.75;32.41
22651;BME280;11492;42.646;23.400;2022-07-29T13:27:33;94970.25;;;32.79;32.62
22651;BME280;11492;42.646;23.400;2022-07-29T13:30:01;94969.78;;;32.77;32.73
22651;BME280;11492;42.646;23.400;2022-07-29T13:32:28;94953.09;;;32.63;32.09
22651;BME280;11492;42.646;23.400;2022-07-29T13:34:54;94955.44;;;32.57;32.93